RJTY(METAR)
05/21 16:57
RJTY 210757Z AUTO 00000KT 10SM FEW010 OVC039 20/19 A2959 RMK
AO2 SLP020 FZRANO $=
戻る
トップページへ戻る
IMOC Co,.Ltd.